Athensville, Illinois
Current Conditions -  °F | °C
As of 1:55 PM on Monday 22 Dec 2014 (Local Time) from KIJX Reporting Station
Overcast Overcast  
Wind Chill: 41°   Ceiling: 600
Heat Index: 46°   Visibility: 10mi
Dew Point: 44°   Wind: 10mph
Humidity: 92%   Direction: 150°SSE
Pressure: 29.59"   Gusts: 17mph
Location:  39.491°N, 90.2996°W
Report Text: KIJX 221955Z AUTO 15009G15KT 10SM OVC006 08/07 A2959 RMK AO2 T00770065
Loading
Personal Weather Stations






























Interactive Weather Map New forecast layout! Learn more

10-Day Weather Forecast

Advertisements
Track Severe Weather on mobile